Time;durP1;ratioP1;P1;durP2;ratioP2;P2;SDS_P1;SDS_P2;PMS_P1;PMS_P2;Temp;Humidity;BMP_temperature;BMP_pressure;BME280_temperature;BME280_humidity;BME280_pressure;Samples;Min_cycle;Max_cycle;Signal;HPM_P1;HPM_P2
2022/11/04 00:01:28;;;;;;;10.18;2.05;;;;;;;;;;5071974;28;20047;-74
2022/11/04 00:03:55;;;;;;;9.18;2.00;;;;;;;;;;5070592;28;20021;-74
2022/11/04 00:06:21;;;;;;;4.82;1.52;;;;;;;;;;5071817;28;20046;-74
2022/11/04 00:08:51;;;;;;;10.05;2.15;;;;;;;;;;5071798;28;20035;-73
2022/11/04 00:14:04;;;;;;;11.52;1.90;;;;;;;;;;5071751;28;20048;-74
2022/11/04 00:19:15;;;;;;;10.88;1.70;;;;;;;;;;5071607;28;20028;-74
2022/11/04 00:29:53;;;;;;;5.82;1.10;;;;;;;;;;5071573;28;20501;-74
2022/11/04 00:35:05;;;;;;;10.13;1.48;;;;;;;;;;5074497;28;20482;-74
2022/11/04 00:37:31;;;;;;;7.80;1.77;;;;;;;;;;5075773;28;20035;-74
2022/11/04 00:39:57;;;;;;;8.25;1.83;;;;;;;;;;5075213;28;20041;-73
2022/11/04 00:42:24;;;;;;;6.57;1.52;;;;;;;;;;5075567;28;20069;-74
2022/11/04 00:44:50;;;;;;;8.88;1.55;;;;;;;;;;5075263;28;20477;-73
2022/11/04 00:47:16;;;;;;;9.75;1.75;;;;;;;;;;5074596;28;20029;-74
2022/11/04 00:49:43;;;;;;;8.70;1.90;;;;;;;;;;5075219;28;20469;-74
2022/11/04 00:52:09;;;;;;;9.77;1.63;;;;;;;;;;5075566;28;20020;-73
2022/11/04 00:54:35;;;;;;;8.82;1.52;;;;;;;;;;5075021;28;20054;-74
2022/11/04 00:57:01;;;;;;;7.82;1.70;;;;;;;;;;5075165;28;20032;-73
2022/11/04 00:59:28;;;;;;;16.52;1.67;;;;;;;;;;5073846;28;20033;-73
2022/11/04 01:01:55;;;;;;;8.20;1.80;;;;;;;;;;5075019;28;20039;-73
2022/11/04 01:04:21;;;;;;;9.02;1.83;;;;;;;;;;5075213;28;20034;-74
2022/11/04 01:06:48;;;;;;;10.23;1.73;;;;;;;;;;5075203;28;20032;-74
2022/11/04 01:09:14;;;;;;;9.43;1.83;;;;;;;;;;5074960;28;20016;-74
2022/11/04 01:11:40;;;;;;;13.73;2.33;;;;;;;;;;5074985;28;20435;-74
2022/11/04 01:14:07;;;;;;;11.10;2.53;;;;;;;;;;5074771;28;20052;-74
2022/11/04 01:16:33;;;;;;;14.10;2.30;;;;;;;;;;5075022;28;20028;-73
2022/11/04 01:19:01;;;;;;;7.00;1.52;;;;;;;;;;5074561;28;20039;-74
2022/11/04 01:21:27;;;;;;;8.75;1.83;;;;;;;;;;5074680;28;20482;-73
2022/11/04 01:23:54;;;;;;;14.18;2.25;;;;;;;;;;5074657;28;20043;-74
2022/11/04 01:26:21;;;;;;;9.20;1.75;;;;;;;;;;5074682;28;20020;-73
2022/11/04 01:28:48;;;;;;;12.23;2.05;;;;;;;;;;5074884;28;20551;-74
2022/11/04 01:31:16;;;;;;;10.18;1.80;;;;;;;;;;5074555;28;20037;-73
2022/11/04 01:33:43;;;;;;;10.77;1.73;;;;;;;;;;5074426;28;20024;-74
2022/11/04 01:36:10;;;;;;;10.95;2.65;;;;;;;;;;5073139;28;20025;-73
2022/11/04 01:38:36;;;;;;;11.63;2.00;;;;;;;;;;5073901;28;20050;-73
2022/11/04 01:41:03;;;;;;;11.30;1.67;;;;;;;;;;5074326;28;20037;-73
2022/11/04 01:43:45;;;;;;;13.50;1.92;;;;;;;;;;5073902;28;20081;-73
2022/11/04 01:46:23;;;;;;;13.38;1.73;;;;;;;;;;5074441;28;20037;-74
2022/11/04 01:48:50;;;;;;;10.07;1.67;;;;;;;;;;5074204;28;20031;-73
2022/11/04 01:51:17;;;;;;;15.23;1.80;;;;;;;;;;5074280;28;20509;-73
2022/11/04 01:53:44;;;;;;;13.43;1.75;;;;;;;;;;5073742;28;20435;-74
2022/11/04 01:56:11;;;;;;;10.68;2.10;;;;;;;;;;5074258;28;20023;-74
2022/11/04 01:58:44;;;;;;;14.02;2.30;;;;;;;;;;5074242;28;20016;-73
2022/11/04 02:01:12;;;;;;;11.48;1.52;;;;;;;;;;5073869;28;20027;-73
2022/11/04 02:03:40;;;;;;;16.60;1.73;;;;;;;;;;5074277;28;20017;-73
2022/11/04 02:06:07;;;;;;;14.40;2.17;;;;;;;;;;5072585;28;20447;-73
2022/11/04 02:08:34;;;;;;;14.23;2.15;;;;;;;;;;5073566;28;20035;-73
2022/11/04 02:11:02;;;;;;;14.63;2.10;;;;;;;;;;5073903;28;20466;-74
2022/11/04 02:13:29;;;;;;;16.45;2.40;;;;;;;;;;5073531;28;20046;-74
2022/11/04 02:16:08;;;;;;;13.30;1.95;;;;;;;;;;5073746;28;20024;-74
2022/11/04 02:18:37;;;;;;;5.82;1.50;;;;;;;;;;5073719;28;20025;-73
2022/11/04 02:21:16;;;;;;;11.88;1.80;;;;;;;;;;5072407;28;20041;-74
2022/11/04 02:23:45;;;;;;;13.48;1.92;;;;;;;;;;5073430;28;20032;-73
2022/11/04 02:26:14;;;;;;;12.13;2.10;;;;;;;;;;5073573;28;20069;-74
2022/11/04 02:28:43;;;;;;;8.63;1.83;;;;;;;;;;5073702;28;20020;-73
2022/11/04 02:31:10;;;;;;;6.57;1.45;;;;;;;;;;5073416;28;20366;-74
2022/11/04 02:33:36;;;;;;;6.07;1.25;;;;;;;;;;5073620;28;20025;-74
2022/11/04 02:36:05;;;;;;;13.93;1.50;;;;;;;;;;5072971;28;20021;-73
2022/11/04 02:38:37;;;;;;;9.13;1.52;;;;;;;;;;5073511;28;20028;-73
2022/11/04 02:41:06;;;;;;;9.48;1.63;;;;;;;;;;5073305;28;20040;-73
2022/11/04 02:43:38;;;;;;;10.10;2.10;;;;;;;;;;5073117;28;20016;-73
2022/11/04 02:46:13;;;;;;;7.10;1.65;;;;;;;;;;5073069;28;20024;-74
2022/11/04 02:48:41;;;;;;;10.73;2.15;;;;;;;;;;5073216;28;20016;-73
2022/11/04 02:51:20;;;;;;;11.40;2.85;;;;;;;;;;5072511;28;20036;-73
2022/11/04 02:53:54;;;;;;;12.15;2.00;;;;;;;;;;5072882;28;20043;-73
2022/11/04 02:56:21;;;;;;;17.73;2.40;;;;;;;;;;5072307;28;20031;-74
2022/11/04 02:58:53;;;;;;;13.73;2.33;;;;;;;;;;5072925;28;20021;-73
2022/11/04 03:01:20;;;;;;;17.98;3.03;;;;;;;;;;5072721;28;20033;-74
2022/11/04 03:03:49;;;;;;;23.40;4.18;;;;;;;;;;5072727;28;20025;-73
2022/11/04 03:06:17;;;;;;;15.20;2.83;;;;;;;;;;5072225;28;20473;-74
2022/11/04 03:08:46;;;;;;;13.38;2.60;;;;;;;;;;5072705;28;20505;-73
2022/11/04 03:11:21;;;;;;;8.90;2.05;;;;;;;;;;5072364;28;20024;-73
2022/11/04 03:13:50;;;;;;;16.13;2.58;;;;;;;;;;5072596;28;20047;-74
2022/11/04 03:16:18;;;;;;;17.20;2.25;;;;;;;;;;5072739;28;20058;-74
2022/11/04 03:18:54;;;;;;;13.07;2.95;;;;;;;;;;5072437;28;20026;-73
2022/11/04 03:21:21;;;;;;;19.17;2.97;;;;;;;;;;5072214;28;20551;-73
2022/11/04 03:23:47;;;;;;;20.27;2.63;;;;;;;;;;5072086;28;20447;-73
2022/11/04 03:26:14;;;;;;;14.07;2.65;;;;;;;;;;5072405;28;20032;-73
2022/11/04 03:28:47;;;;;;;24.92;3.60;;;;;;;;;;5072552;28;20396;-74
2022/11/04 03:31:21;;;;;;;20.70;2.63;;;;;;;;;;5072402;28;20024;-73
2022/11/04 03:33:51;;;;;;;15.95;2.75;;;;;;;;;;5071867;28;20062;-74
2022/11/04 03:36:18;;;;;;;21.52;2.45;;;;;;;;;;5072388;28;20024;-73
2022/11/04 03:38:45;;;;;;;21.55;3.47;;;;;;;;;;5072112;28;20081;-73
2022/11/04 03:41:15;;;;;;;15.63;2.40;;;;;;;;;;5072091;28;20040;-73
2022/11/04 03:43:42;;;;;;;19.48;2.92;;;;;;;;;;5071954;28;20482;-73
2022/11/04 03:46:08;;;;;;;19.20;3.25;;;;;;;;;;5071908;28;20024;-73
2022/11/04 03:48:35;;;;;;;25.70;3.85;;;;;;;;;;5070844;28;20028;-73
2022/11/04 03:51:01;;;;;;;16.75;2.90;;;;;;;;;;5071922;28;20021;-73
2022/11/04 03:53:28;;;;;;;21.67;3.03;;;;;;;;;;5072118;28;20038;-74
2022/11/04 03:56:04;;;;;;;24.30;3.28;;;;;;;;;;5071998;28;20028;-73
2022/11/04 03:58:51;;;;;;;16.20;2.42;;;;;;;;;;5072118;28;20020;-73
2022/11/04 04:01:25;;;;;;;10.52;1.98;;;;;;;;;;5072030;28;20035;-73
2022/11/04 04:03:55;;;;;;;11.43;2.10;;;;;;;;;;5071638;28;20031;-73
2022/11/04 04:06:26;;;;;;;13.73;1.75;;;;;;;;;;5071630;28;20507;-73
2022/11/04 04:08:58;;;;;;;9.93;1.88;;;;;;;;;;5070679;28;20032;-73
2022/11/04 04:11:45;;;;;;;14.93;2.30;;;;;;;;;;5071830;28;20514;-74
2022/11/04 04:14:40;;;;;;;10.57;2.25;;;;;;;;;;5071721;28;20054;-73
2022/11/04 04:17:07;;;;;;;18.40;2.38;;;;;;;;;;5069463;28;20042;-73
2022/11/04 04:19:33;;;;;;;18.17;2.53;;;;;;;;;;5069321;28;20037;-73
2022/11/04 04:22:04;;;;;;;17.10;2.42;;;;;;;;;;5069703;28;20050;-74
2022/11/04 04:27:29;;;;;;;16.25;2.13;;;;;;;;;;5069458;28;20028;-73
2022/11/04 04:29:56;;;;;;;16.90;2.30;;;;;;;;;;5069552;28;20046;-73
2022/11/04 04:32:24;;;;;;;12.60;2.25;;;;;;;;;;5068906;28;20029;-73
2022/11/04 04:35:40;;;;;;;16.95;2.20;;;;;;;;;;5069338;28;20468;-74
2022/11/04 04:37:37;;;;;;;12.73;2.05;;;;;;;;;;5069401;28;20051;-74
2022/11/04 04:45:37;;;;;;;11.25;1.73;;;;;;;;;;5069148;28;20409;-73
2022/11/04 04:48:03;;;;;;;9.23;1.80;;;;;;;;;;5069407;28;20043;-74
2022/11/04 04:50:33;;;;;;;15.18;1.75;;;;;;;;;;5069286;28;20032;-73
2022/11/04 04:53:00;;;;;;;13.88;2.10;;;;;;;;;;5067734;28;20028;-73
2022/11/04 04:55:26;;;;;;;12.98;1.75;;;;;;;;;;5051322;28;20043;-74
2022/11/04 04:57:53;;;;;;;8.85;1.67;;;;;;;;;;5051560;28;20029;-73
2022/11/04 05:00:20;;;;;;;13.45;2.33;;;;;;;;;;5051196;28;20029;-73
2022/11/04 05:02:46;;;;;;;15.07;1.88;;;;;;;;;;5066438;28;20040;-74
2022/11/04 05:05:13;;;;;;;13.60;2.33;;;;;;;;;;5051289;28;20025;-74
2022/11/04 05:07:39;;;;;;;9.38;1.60;;;;;;;;;;5051360;28;20032;-74
2022/11/04 05:10:07;;;;;;;10.02;1.50;;;;;;;;;;5051185;28;20031;-73
2022/11/04 05:15:22;;;;;;;11.73;1.40;;;;;;;;;;5050839;28;20052;-74
2022/11/04 05:17:53;;;;;;;9.98;1.50;;;;;;;;;;5051076;28;20027;-73
2022/11/04 05:20:19;;;;;;;;;;;;;;;;;;5071585;28;20503;-73
2022/11/04 05:22:46;;;;;;;10.38;1.58;;;;;;;;;;5074649;28;19908;-73
2022/11/04 05:25:12;;;;;;;6.93;1.80;;;;;;;;;;5074800;28;20024;-74
2022/11/04 05:27:38;;;;;;;9.88;1.55;;;;;;;;;;5075060;28;20024;-74
2022/11/04 05:30:05;;;;;;;9.52;1.52;;;;;;;;;;5074581;28;20063;-74
2022/11/04 05:32:31;;;;;;;8.88;1.27;;;;;;;;;;5074621;28;20027;-74
2022/11/04 05:34:58;;;;;;;9.45;2.10;;;;;;;;;;5074153;28;20029;-73
2022/11/04 05:37:24;;;;;;;10.77;1.83;;;;;;;;;;5074832;28;20024;-74
2022/11/04 05:39:51;;;;;;;14.50;1.92;;;;;;;;;;5074566;28;20157;-73
2022/11/04 05:42:17;;;;;;;7.60;1.08;;;;;;;;;;5074652;28;20021;-73
2022/11/04 05:44:43;;;;;;;8.85;1.38;;;;;;;;;;5074244;28;20039;-73
2022/11/04 05:47:10;;;;;;;6.15;1.30;;;;;;;;;;5074100;28;20054;-73
2022/11/04 05:49:36;;;;;;;5.07;1.35;;;;;;;;;;5074233;28;20017;-74
2022/11/04 05:52:02;;;;;;;8.07;1.50;;;;;;;;;;5073075;28;20029;-74
2022/11/04 05:54:29;;;;;;;7.63;1.23;;;;;;;;;;5073305;28;20050;-73
2022/11/04 05:56:55;;;;;;;8.95;1.23;;;;;;;;;;5074189;28;20028;-73
2022/11/04 05:59:21;;;;;;;8.38;1.27;;;;;;;;;;5073628;28;20025;-74
2022/11/04 06:01:49;;;;;;;5.90;1.08;;;;;;;;;;5073670;28;20098;-74
2022/11/04 06:04:18;;;;;;;7.07;1.48;;;;;;;;;;5073765;28;20013;-73
2022/11/04 06:06:45;;;;;;;7.03;0.80;;;;;;;;;;5073936;28;20028;-73
2022/11/04 06:09:11;;;;;;;5.93;1.02;;;;;;;;;;5073908;28;20081;-74
2022/11/04 06:11:38;;;;;;;6.30;1.67;;;;;;;;;;5073736;28;20404;-74
2022/11/04 06:14:05;;;;;;;5.68;1.45;;;;;;;;;;5073467;28;20050;-73
2022/11/04 06:16:31;;;;;;;4.32;1.40;;;;;;;;;;5073706;28;20024;-74
2022/11/04 06:18:58;;;;;;;5.97;1.63;;;;;;;;;;5073815;28;20032;-73
2022/11/04 06:21:29;;;;;;;8.52;1.00;;;;;;;;;;5073723;28;20113;-73
2022/11/04 06:23:56;;;;;;;2.75;0.90;;;;;;;;;;5074122;28;20025;-73
2022/11/04 06:26:23;;;;;;;2.33;0.70;;;;;;;;;;5073637;28;20027;-73
2022/11/04 06:28:49;;;;;;;2.63;0.63;;;;;;;;;;5073288;28;20013;-73
2022/11/04 06:31:16;;;;;;;3.00;0.70;;;;;;;;;;5072214;28;20032;-73
2022/11/04 06:33:43;;;;;;;2.17;0.70;;;;;;;;;;5073739;28;20021;-74
2022/11/04 06:36:11;;;;;;;3.83;0.80;;;;;;;;;;5073532;28;20021;-74
2022/11/04 06:38:38;;;;;;;3.28;0.60;;;;;;;;;;5073301;28;20031;-73
2022/11/04 06:41:05;;;;;;;1.75;0.32;;;;;;;;;;5073060;28;20043;-74
2022/11/04 06:43:31;;;;;;;1.05;0.43;;;;;;;;;;5072953;28;20020;-73
2022/11/04 06:45:58;;;;;;;4.28;0.80;;;;;;;;;;5073004;28;20021;-74
2022/11/04 06:48:25;;;;;;;4.65;0.93;;;;;;;;;;5073012;28;20032;-73
2022/11/04 06:50:51;;;;;;;8.13;1.85;;;;;;;;;;5073104;28;20389;-73
2022/11/04 06:53:17;;;;;;;3.80;1.13;;;;;;;;;;5073122;28;20023;-73
2022/11/04 06:55:44;;;;;;;7.18;1.73;;;;;;;;;;5073053;28;20036;-73
2022/11/04 06:58:10;;;;;;;7.88;1.20;;;;;;;;;;5072527;28;20028;-74
2022/11/04 07:00:37;;;;;;;5.75;1.63;;;;;;;;;;5072904;28;20043;-74
2022/11/04 07:03:03;;;;;;;5.45;1.17;;;;;;;;;;5072749;28;20109;-73
2022/11/04 07:05:32;;;;;;;9.45;4.18;;;;;;;;;;5072637;28;20420;-74
2022/11/04 07:07:58;;;;;;;5.05;1.33;;;;;;;;;;5072952;28;20039;-73
2022/11/04 07:10:25;;;;;;;9.20;1.88;;;;;;;;;;5072715;28;20016;-74
2022/11/04 07:12:53;;;;;;;9.73;2.17;;;;;;;;;;5072499;28;20025;-74
2022/11/04 07:15:19;;;;;;;9.10;2.20;;;;;;;;;;5072627;28;20029;-74
2022/11/04 07:17:46;;;;;;;6.10;1.48;;;;;;;;;;5072678;28;20107;-74
2022/11/04 07:20:12;;;;;;;10.15;2.40;;;;;;;;;;5072282;28;20523;-74
2022/11/04 07:22:39;;;;;;;9.55;2.78;;;;;;;;;;5072386;28;20043;-74
2022/11/04 07:25:05;;;;;;;10.98;2.22;;;;;;;;;;5072400;28;20396;-73
2022/11/04 07:27:32;;;;;;;9.10;1.90;;;;;;;;;;5071911;28;20024;-74
2022/11/04 07:29:58;;;;;;;11.50;2.60;;;;;;;;;;5072470;28;20028;-73
2022/11/04 07:32:24;;;;;;;9.93;2.53;;;;;;;;;;5071974;28;20022;-73
2022/11/04 07:34:51;;;;;;;12.63;3.22;;;;;;;;;;5072053;28;20065;-73
2022/11/04 07:37:17;;;;;;;17.00;2.90;;;;;;;;;;5072103;28;20411;-73
2022/11/04 07:39:43;;;;;;;9.63;2.50;;;;;;;;;;5071927;28;20028;-73
2022/11/04 07:42:10;;;;;;;6.60;4.00;;;;;;;;;;5071194;28;20534;-74
2022/11/04 07:44:36;;;;;;;14.75;8.98;;;;;;;;;;5072077;28;20385;-74
2022/11/04 07:47:02;;;;;;;4.03;2.25;;;;;;;;;;5072131;28;20024;-74
2022/11/04 07:49:29;;;;;;;5.70;3.33;;;;;;;;;;5072367;28;20020;-74
2022/11/04 07:51:55;;;;;;;2.00;1.10;;;;;;;;;;5072129;28;20027;-73
2022/11/04 07:54:21;;;;;;;3.88;2.25;;;;;;;;;;5071937;28;20029;-73
2022/11/04 07:56:48;;;;;;;1.45;1.20;;;;;;;;;;5071118;28;20020;-73
2022/11/04 07:59:14;;;;;;;2.10;1.67;;;;;;;;;;5070693;28;20424;-74
2022/11/04 08:01:40;;;;;;;1.92;1.42;;;;;;;;;;5071927;28;20041;-73
2022/11/04 08:04:06;;;;;;;2.00;1.65;;;;;;;;;;5071859;28;20024;-74
2022/11/04 08:06:33;;;;;;;1.52;1.15;;;;;;;;;;5072104;28;20039;-74
2022/11/04 08:08:59;;;;;;;1.73;0.88;;;;;;;;;;5071788;28;20035;-74
2022/11/04 08:11:27;;;;;;;0.95;0.50;;;;;;;;;;5071433;28;20028;-73
2022/11/04 08:13:54;;;;;;;1.95;0.55;;;;;;;;;;5071169;28;20098;-74
2022/11/04 08:16:20;;;;;;;1.52;0.68;;;;;;;;;;5071766;28;20025;-73
2022/11/04 08:18:48;;;;;;;2.85;1.15;;;;;;;;;;5071688;28;20016;-74
2022/11/04 08:21:15;;;;;;;2.20;0.70;;;;;;;;;;5071590;28;20048;-74
2022/11/04 08:23:41;;;;;;;1.27;0.50;;;;;;;;;;5071945;28;20020;-74
2022/11/04 08:26:12;;;;;;;1.13;0.30;;;;;;;;;;5070121;28;20024;-74
2022/11/04 08:28:38;;;;;;;2.55;0.30;;;;;;;;;;5070576;28;20020;-74
2022/11/04 08:31:06;;;;;;;1.35;1.00;;;;;;;;;;5071603;28;20033;-73
2022/11/04 08:33:34;;;;;;;6.70;1.25;;;;;;;;;;5071593;28;20066;-74
2022/11/04 08:36:02;;;;;;;2.58;1.20;;;;;;;;;;5071450;28;20047;-74
2022/11/04 08:38:29;;;;;;;4.93;1.38;;;;;;;;;;5071131;28;20031;-74
2022/11/04 08:40:59;;;;;;;5.40;1.10;;;;;;;;;;5071449;28;20028;-74
2022/11/04 08:43:25;;;;;;;4.70;0.80;;;;;;;;;;5070378;28;20501;-74
2022/11/04 08:45:52;;;;;;;2.05;0.43;;;;;;;;;;5071411;28;20029;-73
2022/11/04 08:48:18;;;;;;;7.95;4.97;;;;;;;;;;5080068;28;20028;-74
2022/11/04 08:50:48;;;;;;;5.75;2.97;;;;;;;;;;5091744;28;20028;-73
2022/11/04 08:53:15;;;;;;;5.35;3.08;;;;;;;;;;5073284;28;20031;-74
2022/11/04 08:55:41;;;;;;;3.70;1.60;;;;;;;;;;5075253;28;20024;-74
2022/11/04 08:58:08;;;;;;;3.97;1.20;;;;;;;;;;5075473;28;20017;-74
2022/11/04 09:00:35;;;;;;;3.55;1.98;;;;;;;;;;5075058;28;20017;-74
2022/11/04 09:03:01;;;;;;;5.47;2.80;;;;;;;;;;5075164;28;20036;-73
2022/11/04 09:05:28;;;;;;;7.35;3.15;;;;;;;;;;5075363;28;20020;-74
2022/11/04 09:07:54;;;;;;;3.90;2.50;;;;;;;;;;5077973;28;20039;-74
2022/11/04 09:10:21;;;;;;;5.00;2.15;;;;;;;;;;5073864;28;20028;-74
2022/11/04 09:12:47;;;;;;;5.30;2.55;;;;;;;;;;5074963;28;20034;-74
2022/11/04 09:15:13;;;;;;;2.88;1.63;;;;;;;;;;5074911;28;20049;-73
2022/11/04 09:17:40;;;;;;;1.83;1.13;;;;;;;;;;5074793;28;20028;-74
2022/11/04 09:20:07;;;;;;;3.97;1.27;;;;;;;;;;5074567;28;20035;-74
2022/11/04 09:22:34;;;;;;;3.17;0.90;;;;;;;;;;5074519;28;20049;-74
2022/11/04 09:25:01;;;;;;;3.08;1.75;;;;;;;;;;5074758;28;20504;-74
2022/11/04 09:27:27;;;;;;;2.65;1.88;;;;;;;;;;5074796;28;20024;-74
2022/11/04 09:29:53;;;;;;;1.55;1.02;;;;;;;;;;5074797;28;20020;-74
2022/11/04 09:32:20;;;;;;;2.72;0.93;;;;;;;;;;5074552;28;20025;-74
2022/11/04 09:34:46;;;;;;;2.00;0.70;;;;;;;;;;5074923;28;20077;-74
2022/11/04 09:37:13;;;;;;;2.42;1.10;;;;;;;;;;5074024;28;20027;-73
2022/11/04 09:39:39;;;;;;;1.63;1.00;;;;;;;;;;5074227;28;20026;-74
2022/11/04 09:42:24;;;;;;;1.77;0.60;;;;;;;;;;5074363;28;20033;-74
2022/11/04 09:45:02;;;;;;;2.20;0.70;;;;;;;;;;5074201;28;20389;-74
2022/11/04 09:47:30;;;;;;;2.72;1.20;;;;;;;;;;5074345;28;20389;-74
2022/11/04 09:49:57;;;;;;;8.43;3.80;;;;;;;;;;5074436;28;20027;-73
2022/11/04 09:52:26;;;;;;;6.00;2.33;;;;;;;;;;5073771;28;20023;-74
2022/11/04 09:54:59;;;;;;;7.03;3.72;;;;;;;;;;5074121;28;20485;-74
2022/11/04 09:57:25;;;;;;;6.40;3.25;;;;;;;;;;5074490;28;20013;-74
2022/11/04 09:59:52;;;;;;;1.48;0.65;;;;;;;;;;5074065;28;20030;-74
2022/11/04 10:02:28;;;;;;;13.75;7.68;;;;;;;;;;5072587;28;20500;-74
2022/11/04 10:05:13;;;;;;;3.97;1.33;;;;;;;;;;5073682;28;20027;-74
2022/11/04 10:07:39;;;;;;;1.38;0.85;;;;;;;;;;5074385;28;20028;-74
2022/11/04 10:10:12;;;;;;;16.45;7.15;;;;;;;;;;5073733;28;20469;-74
2022/11/04 10:13:00;;;;;;;5.53;2.45;;;;;;;;;;5073937;28;20052;-73
2022/11/04 10:15:37;;;;;;;5.28;2.00;;;;;;;;;;5073720;28;20048;-74
2022/11/04 10:18:06;;;;;;;8.40;1.17;;;;;;;;;;5073684;28;20028;-73
2022/11/04 10:20:32;;;;;;;4.53;1.50;;;;;;;;;;5073110;28;20029;-73
2022/11/04 10:23:10;;;;;;;6.05;1.00;;;;;;;;;;5073724;28;20024;-73
2022/11/04 10:25:55;;;;;;;3.25;1.30;;;;;;;;;;5073572;28;20025;-73
2022/11/04 10:28:24;;;;;;;1.80;1.00;;;;;;;;;;5072304;28;20388;-73
2022/11/04 10:30:51;;;;;;;2.05;1.00;;;;;;;;;;5073416;28;20462;-74
2022/11/04 10:33:20;;;;;;;6.78;1.27;;;;;;;;;;5073929;28;20017;-73
2022/11/04 10:35:49;;;;;;;5.88;1.20;;;;;;;;;;5072142;28;20443;-74
2022/11/04 10:38:35;;;;;;;3.97;1.38;;;;;;;;;;5072462;28;20416;-73
2022/11/04 10:41:02;;;;;;;5.60;1.23;;;;;;;;;;5066080;28;20075;-73
2022/11/04 10:43:32;;;;;;;5.63;1.95;;;;;;;;;;5073618;28;20034;-73
2022/11/04 10:46:13;;;;;;;5.53;1.33;;;;;;;;;;5073123;28;20032;-73
2022/11/04 10:48:44;;;;;;;7.53;2.65;;;;;;;;;;5073316;28;20032;-73
2022/11/04 10:51:11;;;;;;;7.25;1.35;;;;;;;;;;5072779;28;20371;-72
2022/11/04 10:53:37;;;;;;;3.88;1.42;;;;;;;;;;5073194;28;20069;-72
2022/11/04 10:56:04;;;;;;;9.35;1.50;;;;;;;;;;5072930;28;20029;-73
2022/11/04 10:58:31;;;;;;;4.70;1.10;;;;;;;;;;5073098;28;20028;-73
2022/11/04 11:00:58;;;;;;;4.65;1.17;;;;;;;;;;5072664;28;20029;-72
2022/11/04 11:03:24;;;;;;;8.65;1.88;;;;;;;;;;5072869;28;20024;-73
2022/11/04 11:05:52;;;;;;;4.35;1.05;;;;;;;;;;5072746;28;20491;-74
2022/11/04 11:08:32;;;;;;;3.50;1.20;;;;;;;;;;5073082;28;20030;-73
2022/11/04 11:10:59;;;;;;;5.40;1.30;;;;;;;;;;5071610;28;20040;-73
2022/11/04 11:13:34;;;;;;;3.30;1.08;;;;;;;;;;5072826;28;20023;-74
2022/11/04 11:16:07;;;;;;;6.55;1.67;;;;;;;;;;5072755;28;20027;-73
2022/11/04 11:18:33;;;;;;;3.97;1.42;;;;;;;;;;5072287;28;20065;-73
2022/11/04 11:21:07;;;;;;;5.45;1.17;;;;;;;;;;5072434;28;20035;-73
2022/11/04 11:23:38;;;;;;;4.18;1.50;;;;;;;;;;5070990;28;20104;-73
2022/11/04 11:26:06;;;;;;;3.78;1.33;;;;;;;;;;5071290;28;20032;-72
2022/11/04 11:28:39;;;;;;;2.67;0.93;;;;;;;;;;5072665;28;20392;-73
2022/11/04 11:31:22;;;;;;;2.38;0.80;;;;;;;;;;5072093;28;20388;-73
2022/11/04 11:33:58;;;;;;;1.63;0.75;;;;;;;;;;5071828;28;20023;-73
2022/11/04 11:36:26;;;;;;;3.00;1.00;;;;;;;;;;5072398;28;20024;-73
2022/11/04 11:39:11;;;;;;;2.83;1.25;;;;;;;;;;5071077;28;20025;-73
2022/11/04 11:41:56;;;;;;;4.00;0.82;;;;;;;;;;5072195;28;20032;-73
2022/11/04 11:44:26;;;;;;;2.03;0.80;;;;;;;;;;5072175;28;20028;-73
2022/11/04 11:46:54;;;;;;;2.63;0.70;;;;;;;;;;5071625;28;20367;-73
2022/11/04 11:49:27;;;;;;;4.35;0.70;;;;;;;;;;5072277;28;20017;-72
2022/11/04 11:51:53;;;;;;;2.15;0.80;;;;;;;;;;5072222;28;20027;-73
2022/11/04 11:54:32;;;;;;;3.58;0.73;;;;;;;;;;5072026;28;20024;-73
2022/11/04 11:57:02;;;;;;;1.63;0.80;;;;;;;;;;5072113;28;20025;-73
2022/11/04 11:59:34;;;;;;;3.28;1.42;;;;;;;;;;5072045;28;20025;-73
2022/11/04 12:02:00;;;;;;;4.05;1.30;;;;;;;;;;5071587;28;20094;-73
2022/11/04 12:04:26;;;;;;;2.47;1.52;;;;;;;;;;5071985;28;20023;-73
2022/11/04 12:06:53;;;;;;;2.40;1.02;;;;;;;;;;5071985;28;20481;-73
2022/11/04 12:09:38;;;;;;;2.80;0.98;;;;;;;;;;5071991;28;20017;-73
2022/11/04 12:12:04;;;;;;;2.53;0.80;;;;;;;;;;5071829;28;20042;-73
2022/11/04 12:14:31;;;;;;;1.38;1.00;;;;;;;;;;5071749;28;20040;-73
2022/11/04 12:17:23;;;;;;;1.67;0.80;;;;;;;;;;5071737;28;20047;-73
2022/11/04 12:20:04;;;;;;;3.78;1.20;;;;;;;;;;5070586;28;20501;-73
2022/11/04 12:22:40;;;;;;;4.35;1.00;;;;;;;;;;5071706;28;20025;-73
2022/11/04 12:25:25;;;;;;;2.08;1.00;;;;;;;;;;5072000;28;20085;-73
2022/11/04 12:27:55;;;;;;;1.88;1.05;;;;;;;;;;5072664;28;20031;-73
2022/11/04 12:30:23;;;;;;;3.70;0.90;;;;;;;;;;5075538;28;20013;-73
2022/11/04 12:32:55;;;;;;;3.50;1.00;;;;;;;;;;5075702;28;20028;-73
2022/11/04 12:35:22;;;;;;;1.98;0.95;;;;;;;;;;5075843;28;20035;-72
2022/11/04 12:38:04;;;;;;;1.17;0.80;;;;;;;;;;5075797;28;20400;-73
2022/11/04 12:40:41;;;;;;;1.65;0.60;;;;;;;;;;5075584;28;20504;-73
2022/11/04 12:43:26;;;;;;;2.40;1.08;;;;;;;;;;5075600;28;20032;-73
2022/11/04 12:46:00;;;;;;;0.93;0.70;;;;;;;;;;5075286;28;20335;-73
2022/11/04 12:48:29;;;;;;;4.63;1.23;;;;;;;;;;5075427;28;20035;-73
2022/11/04 12:50:55;;;;;;;2.45;0.65;;;;;;;;;;5075312;28;20508;-73
2022/11/04 12:53:22;;;;;;;3.15;0.70;;;;;;;;;;5075393;28;20035;-73
2022/11/04 12:56:24;;;;;;;1.77;0.80;;;;;;;;;;5075296;28;20050;-73
2022/11/04 12:58:53;;;;;;;2.33;1.10;;;;;;;;;;5036375;28;20039;-73
2022/11/04 13:01:27;;;;;;;1.63;1.00;;;;;;;;;;5052673;28;20037;-73
2022/11/04 13:03:55;;;;;;;11.75;5.05;;;;;;;;;;5053298;28;20029;-73
2022/11/04 13:06:30;;;;;;;5.38;2.30;;;;;;;;;;5036388;28;20048;-73
2022/11/04 13:09:01;;;;;;;6.70;2.63;;;;;;;;;;5053146;28;20025;-73
2022/11/04 13:11:28;;;;;;;3.53;1.38;;;;;;;;;;5053173;28;20043;-73
2022/11/04 13:14:06;;;;;;;3.80;2.00;;;;;;;;;;5052314;28;20033;-73
2022/11/04 13:16:35;;;;;;;6.10;2.75;;;;;;;;;;5052695;28;20452;-73
2022/11/04 13:19:01;;;;;;;1.55;1.30;;;;;;;;;;5052803;28;20052;-73
2022/11/04 13:21:30;;;;;;;4.35;1.63;;;;;;;;;;5035903;28;20037;-73
2022/11/04 13:24:00;;;;;;;4.57;2.25;;;;;;;;;;5052548;28;20033;-73
2022/11/04 13:26:26;;;;;;;4.18;2.42;;;;;;;;;;5035671;28;20541;-73
2022/11/04 13:28:58;;;;;;;7.15;4.45;;;;;;;;;;5052422;28;20051;-73
2022/11/04 13:31:29;;;;;;;7.50;3.85;;;;;;;;;;5052552;28;20021;-73
2022/11/04 13:33:55;;;;;;;4.90;2.10;;;;;;;;;;5071975;28;20389;-73
2022/11/04 13:36:22;;;;;;;3.75;1.80;;;;;;;;;;5074432;28;20033;-73
2022/11/04 13:38:51;;;;;;;20.27;13.43;;;;;;;;;;5073440;28;20021;-73
2022/11/04 13:41:18;;;;;;;3.60;2.10;;;;;;;;;;5073538;28;20036;-73
2022/11/04 13:43:49;;;;;;;3.83;1.75;;;;;;;;;;5074261;28;20016;-73
2022/11/04 13:46:18;;;;;;;7.07;3.88;;;;;;;;;;5054300;28;20033;-73
2022/11/04 13:49:04;;;;;;;1.45;0.85;;;;;;;;;;5052978;28;20383;-73
2022/11/04 13:51:40;;;;;;;4.57;2.22;;;;;;;;;;5054085;28;20025;-73
2022/11/04 13:54:13;;;;;;;4.95;3.55;;;;;;;;;;5054636;28;20028;-73
2022/11/04 13:56:40;;;;;;;2.50;1.00;;;;;;;;;;5061654;28;20017;-73
2022/11/04 13:59:21;;;;;;;1.83;0.88;;;;;;;;;;5073834;28;20033;-73
2022/11/04 14:02:10;;;;;;;5.82;1.20;;;;;;;;;;5072594;28;20052;-73
2022/11/04 14:04:37;;;;;;;3.35;0.93;;;;;;;;;;5073996;28;20027;-73
2022/11/04 14:07:07;;;;;;;2.63;0.90;;;;;;;;;;5074016;28;20031;-73
2022/11/04 14:09:50;;;;;;;5.35;1.50;;;;;;;;;;5074035;28;20024;-73
2022/11/04 14:12:17;;;;;;;5.22;1.30;;;;;;;;;;5073493;28;20091;-73
2022/11/04 14:14:45;;;;;;;3.72;0.93;;;;;;;;;;5073931;28;20050;-73
2022/11/04 14:17:29;;;;;;;6.28;2.15;;;;;;;;;;5073907;28;20035;-73
2022/11/04 14:20:00;;;;;;;2.35;1.00;;;;;;;;;;5073653;28;20047;-73
2022/11/04 14:22:30;;;;;;;3.42;1.50;;;;;;;;;;5073446;28;20374;-73
2022/11/04 14:24:58;;;;;;;1.55;0.60;;;;;;;;;;5074014;28;20035;-73
2022/11/04 14:27:26;;;;;;;2.13;0.60;;;;;;;;;;5073479;28;20028;-73
2022/11/04 14:29:52;;;;;;;3.08;1.15;;;;;;;;;;5072666;28;20029;-73
2022/11/04 14:32:31;;;;;;;3.65;1.38;;;;;;;;;;5073396;28;20405;-73
2022/11/04 14:34:59;;;;;;;4.97;1.55;;;;;;;;;;5072405;28;20027;-73
2022/11/04 14:37:28;;;;;;;2.22;1.00;;;;;;;;;;5073590;28;20472;-74
2022/11/04 14:39:56;;;;;;;1.58;0.82;;;;;;;;;;5073763;28;20022;-73
2022/11/04 14:42:43;;;;;;;4.03;1.10;;;;;;;;;;5072860;28;20038;-73
2022/11/04 14:45:12;;;;;;;1.85;1.00;;;;;;;;;;5073383;28;20024;-73
2022/11/04 14:47:39;;;;;;;3.58;0.90;;;;;;;;;;5073202;28;20082;-73
2022/11/04 14:50:07;;;;;;;2.08;1.05;;;;;;;;;;5073486;28;20025;-73
2022/11/04 14:52:37;;;;;;;2.25;0.82;;;;;;;;;;5072059;28;20033;-73
2022/11/04 14:55:05;;;;;;;2.80;1.03;;;;;;;;;;5072985;28;20016;-72
2022/11/04 14:57:39;;;;;;;2.67;0.82;;;;;;;;;;5072772;28;20032;-72
2022/11/04 15:00:24;;;;;;;2.08;1.00;;;;;;;;;;5073053;28;20392;-73
2022/11/04 15:03:05;;;;;;;3.05;1.60;;;;;;;;;;5072919;28;20490;-73
2022/11/04 15:05:35;;;;;;;5.78;0.82;;;;;;;;;;5073148;28;20032;-73
2022/11/04 15:08:21;;;;;;;1.58;0.85;;;;;;;;;;5072952;28;20020;-73
2022/11/04 15:10:51;;;;;;;1.85;0.80;;;;;;;;;;5068290;28;20040;-73
2022/11/04 15:13:21;;;;;;;3.65;1.05;;;;;;;;;;5071276;28;20031;-73
2022/11/04 15:15:49;;;;;;;1.90;1.00;;;;;;;;;;5072598;28;20032;-73
2022/11/04 15:18:17;;;;;;;3.13;1.10;;;;;;;;;;5072586;28;20046;-73
2022/11/04 15:21:04;;;;;;;2.67;1.10;;;;;;;;;;5072230;28;20409;-73
2022/11/04 15:23:35;;;;;;;2.10;0.90;;;;;;;;;;5072368;28;20022;-73